createdAt,value
2023-04-27T00:00:51.433Z,5.71
2023-04-27T00:03:18.063Z,5.45
2023-04-27T00:05:44.750Z,5.65
2023-04-27T00:08:11.217Z,5.69
2023-04-27T00:10:37.677Z,5.89
2023-04-27T00:13:04.067Z,5.79
2023-04-27T00:15:30.424Z,5.59
2023-04-27T00:17:56.957Z,5.54
2023-04-27T00:20:23.399Z,5.83
2023-04-27T00:22:49.816Z,5.57
2023-04-27T00:25:16.217Z,5.65
2023-04-27T00:27:42.644Z,5.71
2023-04-27T00:30:09.021Z,5.53
2023-04-27T00:32:35.432Z,5.33
2023-04-27T00:35:01.877Z,5.93
2023-04-27T00:37:28.330Z,5.30
2023-04-27T00:39:54.776Z,5.27
2023-04-27T00:42:21.157Z,5.75
2023-04-27T00:44:47.557Z,5.63
2023-04-27T00:47:14.156Z,5.52
2023-04-27T00:49:40.611Z,5.70
2023-04-27T00:52:06.999Z,5.90
2023-04-27T00:54:33.389Z,5.68
2023-04-27T00:56:59.783Z,6.08
2023-04-27T00:59:26.201Z,6.21
2023-04-27T01:01:52.573Z,6.19
2023-04-27T01:04:19.060Z,6.09
2023-04-27T01:06:45.570Z,6.04
2023-04-27T01:09:12.255Z,5.82
2023-04-27T01:11:38.809Z,5.81
2023-04-27T01:14:05.192Z,6.23
2023-04-27T01:16:31.589Z,5.97
2023-04-27T01:18:58.056Z,6.04
2023-04-27T01:21:24.437Z,5.60
2023-04-27T01:23:50.881Z,5.73
2023-04-27T01:26:17.334Z,5.95
2023-04-27T01:28:43.803Z,6.02
2023-04-27T01:31:10.251Z,5.69
2023-04-27T01:33:36.651Z,5.96
2023-04-27T01:36:03.062Z,5.93
2023-04-27T01:38:29.478Z,5.83
2023-04-27T01:40:55.876Z,5.77
2023-04-27T01:43:22.266Z,5.84
2023-04-27T01:45:48.690Z,5.85
2023-04-27T01:48:15.134Z,5.80
2023-04-27T01:50:41.601Z,6.19
2023-04-27T01:53:08.066Z,6.19
2023-04-27T01:55:34.469Z,6.00
2023-04-27T01:58:00.891Z,6.15
2023-04-27T02:00:27.291Z,5.85
2023-04-27T02:02:53.917Z,5.80
2023-04-27T02:05:20.447Z,5.98
2023-04-27T02:07:46.934Z,5.63
2023-04-27T02:10:13.307Z,5.79
2023-04-27T02:12:39.709Z,5.54
2023-04-27T02:15:06.109Z,5.92
2023-04-27T02:17:32.529Z,5.66
2023-04-27T02:19:59.018Z,5.19
2023-04-27T02:22:25.402Z,5.62
2023-04-27T02:24:51.738Z,5.47
2023-04-27T02:27:18.180Z,5.90
2023-04-27T02:29:45.062Z,5.70
2023-04-27T02:32:11.915Z,5.48
2023-04-27T02:34:38.326Z,5.42
2023-04-27T02:37:04.701Z,5.58
2023-04-27T02:39:31.098Z,5.44
2023-04-27T02:41:57.450Z,5.72
2023-04-27T02:44:23.843Z,5.48
2023-04-27T02:46:50.263Z,5.52
2023-04-27T02:49:16.779Z,6.11
2023-04-27T02:51:43.229Z,5.28
2023-04-27T02:54:09.627Z,5.53
2023-04-27T02:56:36.026Z,5.42
2023-04-27T02:59:02.403Z,5.47
2023-04-27T03:01:29.044Z,5.20
2023-04-27T03:03:55.663Z,5.52
2023-04-27T03:06:22.303Z,5.49
2023-04-27T03:08:48.693Z,5.45
2023-04-27T03:11:15.068Z,5.31
2023-04-27T03:13:41.579Z,5.62
2023-04-27T03:16:07.964Z,5.37
2023-04-27T03:18:34.437Z,5.00
2023-04-27T03:21:01.067Z,5.15
2023-04-27T03:23:27.436Z,5.21
2023-04-27T03:25:53.997Z,5.40
2023-04-27T03:28:20.387Z,5.56
2023-04-27T03:30:46.757Z,5.62
2023-04-27T03:33:13.185Z,5.60
2023-04-27T03:35:39.623Z,5.76
2023-04-27T03:38:05.964Z,5.35
2023-04-27T03:40:32.353Z,5.80
2023-04-27T03:42:59.227Z,6.09
2023-04-27T03:45:25.689Z,6.06
2023-04-27T03:47:52.088Z,5.97
2023-04-27T03:50:18.486Z,5.94
2023-04-27T03:52:44.911Z,6.37
2023-04-27T03:55:11.265Z,7.48
2023-04-27T03:57:37.693Z,6.66
2023-04-27T04:00:04.056Z,6.67
2023-04-27T04:02:30.556Z,6.56
2023-04-27T04:04:57.231Z,6.68
2023-04-27T04:07:23.839Z,6.27
2023-04-27T04:09:50.239Z,6.32
2023-04-27T04:12:16.607Z,6.22
2023-04-27T04:14:43.030Z,6.19
2023-04-27T04:17:09.427Z,7.62
2023-04-27T04:19:35.868Z,6.79
2023-04-27T04:22:02.264Z,6.11
2023-04-27T04:24:28.773Z,5.82
2023-04-27T04:26:55.299Z,5.89
2023-04-27T04:29:21.700Z,6.38
2023-04-27T04:31:48.158Z,6.18
2023-04-27T04:34:14.683Z,6.12
2023-04-27T04:36:41.059Z,6.14
2023-04-27T04:39:07.479Z,5.32
2023-04-27T04:41:33.888Z,5.36
2023-04-27T04:44:00.261Z,4.74
2023-04-27T04:46:26.637Z,4.72
2023-04-27T04:48:54.724Z,4.70
2023-04-27T04:51:21.411Z,4.91
2023-04-27T04:53:47.786Z,4.68
2023-04-27T04:56:14.191Z,4.73
2023-04-27T04:58:40.646Z,4.74
2023-04-27T05:01:07.269Z,4.60
2023-04-27T05:03:34.224Z,4.82
2023-04-27T05:06:00.705Z,4.48
2023-04-27T05:08:27.167Z,5.10
2023-04-27T05:10:53.555Z,4.49
2023-04-27T05:13:19.969Z,5.20
2023-04-27T05:15:46.407Z,5.17
2023-04-27T05:18:12.789Z,4.99
2023-04-27T05:20:39.197Z,5.05
2023-04-27T05:23:05.643Z,5.57
2023-04-27T05:25:32.165Z,5.21
2023-04-27T05:27:58.550Z,5.66
2023-04-27T05:30:25.022Z,5.81
2023-04-27T05:32:51.419Z,6.29
2023-04-27T05:35:17.861Z,6.24
2023-04-27T05:37:44.242Z,5.91
2023-04-27T05:40:10.625Z,5.73
2023-04-27T05:42:37.020Z,5.35
2023-04-27T05:45:03.482Z,4.93
2023-04-27T05:47:29.888Z,4.05
2023-04-27T05:49:56.279Z,3.86
2023-04-27T05:52:22.677Z,4.00
2023-04-27T05:54:49.055Z,3.98
2023-04-27T05:57:15.438Z,4.42
2023-04-27T05:59:41.857Z,4.01
2023-04-27T06:02:08.345Z,4.87
2023-04-27T06:04:34.823Z,4.40
2023-04-27T06:07:01.373Z,4.08
2023-04-27T06:09:27.859Z,4.11
2023-04-27T06:11:54.274Z,4.18
2023-04-27T06:14:20.649Z,4.21
2023-04-27T06:16:47.068Z,4.08
2023-04-27T06:19:13.665Z,3.90
2023-04-27T06:21:40.249Z,4.01
2023-04-27T06:24:06.661Z,4.23
2023-04-27T06:26:33.120Z,4.68
2023-04-27T06:28:59.521Z,4.50
2023-04-27T06:31:25.950Z,4.42
2023-04-27T06:33:52.379Z,4.21
2023-04-27T06:36:18.750Z,4.04
2023-04-27T06:38:45.134Z,4.08
2023-04-27T06:41:11.557Z,4.56
2023-04-27T06:43:37.963Z,4.70
2023-04-27T06:46:04.593Z,4.55
2023-04-27T06:48:32.241Z,4.74
2023-04-27T06:50:58.620Z,4.75
2023-04-27T06:53:24.986Z,4.76
2023-04-27T06:55:51.361Z,4.45
2023-04-27T06:58:17.705Z,4.66
2023-04-27T07:00:44.092Z,4.52
2023-04-27T07:03:10.679Z,5.30
2023-04-27T07:05:37.374Z,4.92
2023-04-27T07:08:07.234Z,5.74
2023-04-27T07:10:35.059Z,5.32
2023-04-27T07:13:01.462Z,7.04
2023-04-27T07:15:27.871Z,6.03
2023-04-27T07:17:54.289Z,5.89
2023-04-27T07:20:20.702Z,6.33
2023-04-27T07:22:47.123Z,6.48
2023-04-27T07:25:13.567Z,5.79
2023-04-27T07:27:39.978Z,4.99
2023-04-27T07:30:06.405Z,5.47
2023-04-27T07:32:32.867Z,5.16
2023-04-27T07:34:59.289Z,4.81
2023-04-27T07:37:25.659Z,4.42
2023-04-27T07:39:52.119Z,5.34
2023-04-27T07:42:18.478Z,3.74
2023-04-27T07:44:44.901Z,4.05
2023-04-27T07:47:11.308Z,3.58
2023-04-27T07:49:37.739Z,4.13
2023-04-27T07:52:04.160Z,3.45
2023-04-27T07:54:30.546Z,4.86
2023-04-27T07:56:56.940Z,3.62
2023-04-27T07:59:23.307Z,3.54
2023-04-27T08:01:49.727Z,3.99
2023-04-27T08:04:16.529Z,4.43
2023-04-27T08:06:43.499Z,3.72
2023-04-27T08:09:10.180Z,3.37
2023-04-27T08:11:36.639Z,3.61
2023-04-27T08:14:03.053Z,3.50
2023-04-27T08:16:29.542Z,3.70
2023-04-27T08:18:56.258Z,3.31
2023-04-27T08:21:23.546Z,3.41
2023-04-27T08:23:49.913Z,3.51
2023-04-27T08:26:16.325Z,3.71
2023-04-27T08:28:42.739Z,3.67
2023-04-27T08:31:09.142Z,3.91
2023-04-27T08:33:35.537Z,3.93
2023-04-27T08:36:02.015Z,3.55
2023-04-27T08:38:28.463Z,3.39
2023-04-27T08:40:54.836Z,3.17
2023-04-27T08:43:21.284Z,3.56
2023-04-27T08:45:47.713Z,3.64
2023-04-27T08:48:14.198Z,3.40
2023-04-27T08:50:40.646Z,3.12
2023-04-27T08:53:07.137Z,3.17
2023-04-27T08:55:33.525Z,3.87
2023-04-27T08:57:59.910Z,2.99
2023-04-27T09:00:26.500Z,3.40
2023-04-27T09:02:53.003Z,2.87
2023-04-27T09:05:19.612Z,2.88
2023-04-27T09:07:46.097Z,3.14
2023-04-27T09:10:12.541Z,2.97
2023-04-27T09:12:38.942Z,3.15
2023-04-27T09:15:05.314Z,2.99
2023-04-27T09:17:31.816Z,3.07
2023-04-27T09:19:58.229Z,3.04
2023-04-27T09:22:24.644Z,3.39
2023-04-27T09:24:51.065Z,3.18
2023-04-27T09:27:17.465Z,2.99
2023-04-27T09:29:43.866Z,3.37
2023-04-27T09:32:10.239Z,3.93
2023-04-27T09:34:36.667Z,3.92
2023-04-27T09:37:03.100Z,3.42
2023-04-27T09:39:29.480Z,3.61
2023-04-27T09:41:55.930Z,3.45
2023-04-27T09:44:22.301Z,3.98
2023-04-27T09:46:48.700Z,3.42
2023-04-27T09:49:15.244Z,3.52
2023-04-27T09:51:44.347Z,3.29
2023-04-27T09:54:10.721Z,3.39
2023-04-27T09:56:37.101Z,3.47
2023-04-27T09:59:03.519Z,3.80
2023-04-27T10:01:29.926Z,3.26
2023-04-27T10:03:56.451Z,3.03
2023-04-27T10:06:22.951Z,3.35
2023-04-27T10:08:49.414Z,2.85
2023-04-27T10:11:15.840Z,2.79
2023-04-27T10:13:42.217Z,2.82
2023-04-27T10:16:08.588Z,2.90
2023-04-27T10:18:35.065Z,2.93
2023-04-27T10:21:01.464Z,3.03
2023-04-27T10:23:27.952Z,3.36
2023-04-27T10:25:54.347Z,2.93
2023-04-27T10:28:20.872Z,3.57
2023-04-27T10:30:47.333Z,3.32
2023-04-27T10:33:13.749Z,3.16
2023-04-27T10:35:40.239Z,3.12
2023-04-27T10:38:06.645Z,3.32
2023-04-27T10:40:33.046Z,2.84
2023-04-27T10:42:59.614Z,3.13
2023-04-27T10:45:26.415Z,2.66
2023-04-27T10:47:53.967Z,3.02
2023-04-27T10:50:20.417Z,2.73
2023-04-27T10:52:46.827Z,2.58
2023-04-27T10:55:13.282Z,2.55
2023-04-27T10:57:39.702Z,2.74
2023-04-27T11:00:06.094Z,2.72
2023-04-27T11:02:32.601Z,2.45
2023-04-27T11:04:59.210Z,2.71
2023-04-27T11:07:25.635Z,2.40
2023-04-27T11:09:52.058Z,2.99
2023-04-27T11:12:18.469Z,2.70
2023-04-27T11:14:44.897Z,2.65
2023-04-27T11:17:11.339Z,3.36
2023-04-27T11:19:37.699Z,3.06
2023-04-27T11:22:04.092Z,2.74
2023-04-27T11:24:30.529Z,2.76
2023-04-27T11:26:56.910Z,2.66
2023-04-27T11:29:23.294Z,4.37
2023-04-27T11:31:49.880Z,2.39
2023-04-27T11:34:16.475Z,1.81
2023-04-27T11:36:42.900Z,2.11
2023-04-27T11:39:09.347Z,1.90
2023-04-27T11:41:35.741Z,1.71
2023-04-27T11:44:02.116Z,1.68
2023-04-27T11:46:28.776Z,1.56
2023-04-27T11:48:55.224Z,1.76
2023-04-27T11:51:21.598Z,1.59
2023-04-27T11:53:47.954Z,1.65
2023-04-27T11:56:14.317Z,1.83
2023-04-27T11:58:40.705Z,2.31
2023-04-27T12:01:07.254Z,2.47
2023-04-27T12:03:33.966Z,2.22
2023-04-27T12:06:12.060Z,1.93
2023-04-27T12:08:47.152Z,1.63
2023-04-27T12:11:13.549Z,1.57
2023-04-27T12:13:39.906Z,1.71
2023-04-27T12:16:06.304Z,1.90
2023-04-27T12:18:32.672Z,1.70
2023-04-27T12:21:02.797Z,1.64
2023-04-27T12:23:29.602Z,2.17
2023-04-27T12:25:56.031Z,1.95
2023-04-27T12:28:22.417Z,1.50
2023-04-27T12:30:48.818Z,1.58
2023-04-27T12:33:15.313Z,1.73
2023-04-27T12:35:41.730Z,1.75
2023-04-27T12:38:08.096Z,2.03
2023-04-27T12:40:34.519Z,2.10
2023-04-27T12:43:01.262Z,1.67
2023-04-27T12:45:27.888Z,1.25
2023-04-27T12:48:02.476Z,1.67
2023-04-27T12:50:30.100Z,2.01
2023-04-27T12:52:56.527Z,1.69
2023-04-27T12:55:32.848Z,1.62
2023-04-27T12:58:00.404Z,1.69
2023-04-27T13:00:26.811Z,1.50
2023-04-27T13:02:53.423Z,1.58
2023-04-27T13:05:20.036Z,2.03
2023-04-27T13:07:46.422Z,2.02
2023-04-27T13:10:12.795Z,2.48
2023-04-27T13:12:39.235Z,2.11
2023-04-27T13:15:05.671Z,2.12
2023-04-27T13:17:32.133Z,1.93
2023-04-27T13:19:58.559Z,2.19
2023-04-27T13:22:24.942Z,1.81
2023-04-27T13:24:51.346Z,1.79
2023-04-27T13:27:17.763Z,1.58
2023-04-27T13:29:44.169Z,1.61
2023-04-27T13:32:10.552Z,1.68
2023-04-27T13:34:36.951Z,1.68
2023-04-27T13:37:03.332Z,2.36
2023-04-27T13:39:29.748Z,1.90
2023-04-27T13:41:56.442Z,1.37
2023-04-27T13:44:22.969Z,1.12
2023-04-27T13:46:49.452Z,1.40
2023-04-27T13:49:15.931Z,1.69
2023-04-27T13:51:42.345Z,1.36
2023-04-27T13:54:08.735Z,1.38
2023-04-27T13:56:35.086Z,1.10
2023-04-27T13:59:01.488Z,1.25
2023-04-27T14:01:28.024Z,1.43
2023-04-27T14:03:54.675Z,1.35
2023-04-27T14:06:21.187Z,1.37
2023-04-27T14:08:47.600Z,1.23
2023-04-27T14:11:13.996Z,1.63
2023-04-27T14:13:40.361Z,1.25
2023-04-27T14:16:06.936Z,13.87
2023-04-27T14:18:33.522Z,9.34
2023-04-27T14:20:59.984Z,1.15
2023-04-27T14:23:26.380Z,1.56
2023-04-27T14:25:52.771Z,1.42
2023-04-27T14:28:19.248Z,1.28
2023-04-27T14:30:45.621Z,1.13
2023-04-27T14:33:12.150Z,1.48
2023-04-27T14:35:38.682Z,1.30
2023-04-27T14:38:05.188Z,1.10
2023-04-27T14:40:31.573Z,0.99
2023-04-27T14:42:58.016Z,0.98
2023-04-27T14:45:24.491Z,1.20
2023-04-27T14:47:50.971Z,1.12
2023-04-27T14:50:17.426Z,1.01
2023-04-27T14:52:43.788Z,1.25
2023-04-27T14:55:10.160Z,1.11
2023-04-27T14:57:36.566Z,0.98
2023-04-27T15:00:02.953Z,0.94
2023-04-27T15:02:32.428Z,0.94
2023-04-27T15:05:00.479Z,1.27
2023-04-27T15:07:27.135Z,1.37
2023-04-27T15:09:53.522Z,1.52
2023-04-27T15:12:19.886Z,1.13
2023-04-27T15:14:46.308Z,1.15
2023-04-27T15:17:12.763Z,1.00
2023-04-27T15:19:39.164Z,1.02
2023-04-27T15:22:05.527Z,1.14
2023-04-27T15:24:34.394Z,1.01
2023-04-27T15:27:00.755Z,0.97
2023-04-27T15:29:27.167Z,0.84
2023-04-27T15:31:53.650Z,1.07
2023-04-27T15:34:20.096Z,0.83
2023-04-27T15:36:46.474Z,0.77
2023-04-27T15:39:13.152Z,0.83
2023-04-27T15:41:39.878Z,1.82
2023-04-27T15:44:06.513Z,1.26
2023-04-27T15:46:33.040Z,1.26
2023-04-27T15:48:59.456Z,1.05
2023-04-27T15:51:25.835Z,1.05
2023-04-27T15:53:52.206Z,0.90
2023-04-27T15:56:18.644Z,1.00
2023-04-27T15:58:45.060Z,1.10
2023-04-27T16:01:11.522Z,1.14
2023-04-27T16:03:38.194Z,1.04
2023-04-27T16:06:04.675Z,1.18
2023-04-27T16:08:31.175Z,1.26
2023-04-27T16:10:57.560Z,1.12
2023-04-27T16:13:23.962Z,1.14
2023-04-27T16:15:50.382Z,1.00
2023-04-27T16:18:16.794Z,1.12
2023-04-27T16:20:43.293Z,1.18
2023-04-27T16:23:09.698Z,1.56
2023-04-27T16:25:36.099Z,1.43
2023-04-27T16:28:02.481Z,1.37
2023-04-27T16:30:28.878Z,1.25
2023-04-27T16:32:55.432Z,1.02
2023-04-27T16:35:21.913Z,1.60
2023-04-27T16:37:48.275Z,1.52
2023-04-27T16:40:14.684Z,1.34
2023-04-27T16:42:41.196Z,1.37
2023-04-27T16:45:09.968Z,1.22
2023-04-27T16:47:37.281Z,1.23
2023-04-27T16:50:03.684Z,1.35
2023-04-27T16:52:30.072Z,1.66
2023-04-27T16:54:56.598Z,1.52
2023-04-27T16:57:23.018Z,1.52
2023-04-27T16:59:49.467Z,1.47
2023-04-27T17:02:24.336Z,3.37
2023-04-27T17:04:51.856Z,1.39
2023-04-27T17:07:18.636Z,1.52
2023-04-27T17:09:45.111Z,1.57
2023-04-27T17:12:11.492Z,1.54
2023-04-27T17:14:37.908Z,1.54
2023-04-27T17:17:04.673Z,1.59
2023-04-27T17:19:31.221Z,2.26
2023-04-27T17:21:57.596Z,2.32
2023-04-27T17:24:23.982Z,1.97
2023-04-27T17:26:50.375Z,1.60
2023-04-27T17:29:17.144Z,1.60
2023-04-27T17:31:43.980Z,1.59
2023-04-27T17:34:10.386Z,1.95
2023-04-27T17:36:36.759Z,1.47
2023-04-27T17:39:03.143Z,1.63
2023-04-27T17:41:29.537Z,2.35
2023-04-27T17:43:55.960Z,1.41
2023-04-27T17:46:22.417Z,1.46
2023-04-27T17:48:48.962Z,1.52
2023-04-27T17:51:15.356Z,1.33
2023-04-27T17:53:41.856Z,1.42
2023-04-27T17:56:08.246Z,1.62
2023-04-27T17:58:34.647Z,1.45
2023-04-27T18:01:01.394Z,1.44
2023-04-27T18:03:28.029Z,1.48
2023-04-27T18:05:54.580Z,1.45
2023-04-27T18:08:20.966Z,1.49
2023-04-27T18:10:47.351Z,1.53
2023-04-27T18:13:14.232Z,1.46
2023-04-27T18:15:40.675Z,1.59
2023-04-27T18:18:07.130Z,1.61
2023-04-27T18:20:33.564Z,1.59
2023-04-27T18:23:01.885Z,1.70
2023-04-27T18:25:28.417Z,1.87
2023-04-27T18:27:54.871Z,2.07
2023-04-27T18:30:21.315Z,2.05
2023-04-27T18:32:47.758Z,2.06
2023-04-27T18:35:14.427Z,5.53
2023-04-27T18:37:40.811Z,3.63
2023-04-27T18:40:07.311Z,2.69
2023-04-27T18:42:33.745Z,2.30
2023-04-27T18:45:00.949Z,2.17
2023-04-27T18:47:27.644Z,2.09
2023-04-27T18:49:54.373Z,1.73
2023-04-27T18:52:20.777Z,1.60
2023-04-27T18:54:47.218Z,2.55
2023-04-27T18:57:13.615Z,3.22
2023-04-27T18:59:40.076Z,1.92
2023-04-27T19:02:06.597Z,2.06
2023-04-27T19:04:33.097Z,1.90
2023-04-27T19:06:59.770Z,1.81
2023-04-27T19:09:26.271Z,2.05
2023-04-27T19:11:59.981Z,1.82
2023-04-27T19:14:29.490Z,2.43
2023-04-27T19:16:56.033Z,2.34
2023-04-27T19:19:22.751Z,2.40
2023-04-27T19:21:49.234Z,2.31
2023-04-27T19:24:15.807Z,2.41
2023-04-27T19:26:42.410Z,2.67
2023-04-27T19:29:08.874Z,2.27
2023-04-27T19:31:35.606Z,2.91
2023-04-27T19:34:04.485Z,2.61
2023-04-27T19:36:31.294Z,2.51
2023-04-27T19:41:38.263Z,2.61
2023-04-27T19:44:04.903Z,3.32
2023-04-27T19:46:34.885Z,2.67
2023-04-27T19:49:08.797Z,2.85
2023-04-27T19:51:35.263Z,2.88
2023-04-27T19:54:01.934Z,3.34
2023-04-27T19:56:33.767Z,3.63
2023-04-27T19:59:17.667Z,3.17
2023-04-27T20:01:51.759Z,3.03
2023-04-27T20:04:19.073Z,3.06
2023-04-27T20:06:54.809Z,2.96
2023-04-27T20:09:21.293Z,2.85
2023-04-27T20:11:47.748Z,2.81
2023-04-27T20:14:14.799Z,3.43
2023-04-27T20:16:53.249Z,3.12
2023-04-27T20:19:19.618Z,3.17
2023-04-27T20:21:46.177Z,2.78
2023-04-27T20:26:53.044Z,3.67
2023-04-27T20:29:19.529Z,3.12
2023-04-27T20:31:46.206Z,2.36
2023-04-27T20:34:13.026Z,2.92
2023-04-27T20:36:40.744Z,2.96
2023-04-27T20:39:07.145Z,2.70
2023-04-27T20:41:33.833Z,2.76
2023-04-27T20:44:00.335Z,6.35
2023-04-27T20:46:26.885Z,32.99
2023-04-27T20:48:53.548Z,3.86
2023-04-27T20:51:20.042Z,2.94
2023-04-27T20:53:46.419Z,2.74
2023-04-27T20:56:12.902Z,2.86
2023-04-27T20:58:39.361Z,3.29
2023-04-27T21:01:05.867Z,2.77
2023-04-27T21:03:32.483Z,3.19
2023-04-27T21:05:59.134Z,3.92
2023-04-27T21:08:25.545Z,3.51
2023-04-27T21:10:53.786Z,2.92
2023-04-27T21:13:20.311Z,2.78
2023-04-27T21:15:46.917Z,3.70
2023-04-27T21:18:22.531Z,3.65
2023-04-27T21:20:56.467Z,2.47
2023-04-27T21:23:22.882Z,2.96
2023-04-27T21:25:49.391Z,4.79
2023-04-27T21:28:15.905Z,5.42
2023-04-27T21:30:42.295Z,3.89
2023-04-27T21:33:08.762Z,3.83
2023-04-27T21:35:35.333Z,3.36
2023-04-27T21:38:01.808Z,3.39
2023-04-27T21:40:28.281Z,4.18
2023-04-27T21:42:54.924Z,2.79
2023-04-27T21:45:21.435Z,2.57
2023-04-27T21:47:47.854Z,2.92
2023-04-27T21:50:14.438Z,3.24
2023-04-27T21:52:40.855Z,3.03
2023-04-27T21:55:07.250Z,3.21
2023-04-27T21:57:33.661Z,2.88
2023-04-27T22:00:00.202Z,3.13
2023-04-27T22:02:26.727Z,2.85
2023-04-27T22:04:54.909Z,2.60
2023-04-27T22:07:21.612Z,2.90
2023-04-27T22:09:48.148Z,3.25
2023-04-27T22:12:14.524Z,2.78
2023-04-27T22:14:40.915Z,3.09
2023-04-27T22:17:10.222Z,3.36
2023-04-27T22:19:36.723Z,2.87
2023-04-27T22:22:03.196Z,2.86
2023-04-27T22:24:29.605Z,2.66
2023-04-27T22:26:55.990Z,2.48
2023-04-27T22:29:23.667Z,2.29
2023-04-27T22:31:50.093Z,2.26
2023-04-27T22:34:16.805Z,2.38
2023-04-27T22:36:43.708Z,2.47
2023-04-27T22:39:11.672Z,2.69
2023-04-27T22:41:38.079Z,2.85
2023-04-27T22:44:04.469Z,3.13
2023-04-27T22:46:31.009Z,2.78
2023-04-27T22:48:57.485Z,2.33
2023-04-27T22:51:23.863Z,2.59
2023-04-27T22:53:51.428Z,2.40
2023-04-27T22:56:19.892Z,2.21
2023-04-27T22:58:46.372Z,2.10
2023-04-27T23:01:12.854Z,2.10
2023-04-27T23:03:39.501Z,2.15
2023-04-27T23:06:06.106Z,3.06
2023-04-27T23:08:32.503Z,2.68
2023-04-27T23:10:58.916Z,2.34
2023-04-27T23:13:25.287Z,2.53
2023-04-27T23:15:51.629Z,2.83
2023-04-27T23:18:18.038Z,2.25
2023-04-27T23:20:44.460Z,2.31
2023-04-27T23:23:10.864Z,2.57
2023-04-27T23:25:37.259Z,3.04
2023-04-27T23:28:03.637Z,2.55
2023-04-27T23:30:30.093Z,2.52
2023-04-27T23:32:56.530Z,2.37
2023-04-27T23:35:23.007Z,2.42
2023-04-27T23:37:49.425Z,2.16
2023-04-27T23:40:15.830Z,2.67
2023-04-27T23:42:42.232Z,3.54
2023-04-27T23:45:08.632Z,3.11
2023-04-27T23:47:35.413Z,3.10
2023-04-27T23:50:01.806Z,3.46
2023-04-27T23:52:28.202Z,2.86
2023-04-27T23:54:54.576Z,2.53
2023-04-27T23:57:21.195Z,2.67
2023-04-27T23:59:47.586Z,2.83
